Waverunner — ZCTE7 — position and weather

sailwx.info

Track history (hours):
 
Tides and Currents Weather Stations Pressure Air Temp Water Temp Dewpoint Dewpoint Depression Visibility Wind Speed Wind Dir Waves Ship Positions

Waverunner

Last reported at 2017-Aug-14 17:58 UTC. Time now 2017-Aug-23 11:43 UTC.
Position N 39°06' E 009°26'.
Warning: this ship's position is 8 days out of date.

Length 41 m; draft 2 m.

MMSI: 319804000.

Date/timePositionNaut miles runAvg speedWind from/ knotsBaromVisibWave heightAir tempDewpointWater temp
2017-Aug-14 17:58N 39°06' E 009°26'611.8
2017-Aug-14 17:28N 39°08' E 009°19'511.9
2017-Aug-14 17:00N 39°09' E 009°12'5 9.6
2017-Aug-14 16:30N 39°11' E 009°07'2 3.1
2017-Aug-14 16:00N 39°13' E 009°06'0 0.0
2017-Aug-14 15:30N 39°13' E 009°07'0 0.0
2017-Aug-14 15:00N 39°13' E 009°07'0 0.0
2017-Aug-14 14:28N 39°13' E 009°07'0 0.0
2017-Aug-14 13:58N 39°13' E 009°07'1 1.3
2017-Aug-14 13:30N 39°12' E 009°07'2 4.1
2017-Aug-14 12:58N 39°11' E 009°09'0 0.0
2017-Aug-14 12:29N 39°11' E 009°09'0 0.0
2017-Aug-14 11:59N 39°11' E 009°09'0 0.0
2017-Aug-14 11:29N 39°11' E 009°09'0 0.0
2017-Aug-14 11:00N 39°11' E 009°09'0 0.0
2017-Aug-14 10:30N 39°11' E 009°09'0 0.0
2017-Aug-14 09:25N 39°11' E 009°09'0 0.0
2017-Aug-14 08:58N 39°11' E 009°09'0 0.0
2017-Aug-14 08:28N 39°11' E 009°09'0 0.1
2017-Aug-14 07:59N 39°11' E 009°09'0 0.0
2017-Aug-14 07:29N 39°11' E 009°09'0 0.0
2017-Aug-14 06:59N 39°11' E 009°09'0 0.0
2017-Aug-14 06:30N 39°11' E 009°09'0 0.0
2017-Aug-14 06:00N 39°11' E 009°09'0 0.0
2017-Aug-14 05:30N 39°11' E 009°09'0 0.0
2017-Aug-14 04:58N 39°11' E 009°09'0 0.0
2017-Aug-14 04:28N 39°11' E 009°09'0 0.0
2017-Aug-14 03:58N 39°11' E 009°09'0 0.0
2017-Aug-14 03:29N 39°11' E 009°09'0 0.0
2017-Aug-14 02:59N 39°11' E 009°09'0 0.0
2017-Aug-14 02:29N 39°11' E 009°09'0 0.0
2017-Aug-14 02:00N 39°11' E 009°09'0 0.1
2017-Aug-14 01:30N 39°11' E 009°09'0 0.0
2017-Aug-14 01:00N 39°11' E 009°09'0 0.0
2017-Aug-14 00:28N 39°11' E 009°09'0 0.0
2017-Aug-13 23:58N 39°11' E 009°09'0 0.0
2017-Aug-13 23:28N 39°11' E 009°09'0 0.0
2017-Aug-13 22:59N 39°11' E 009°09'0 0.0
2017-Aug-13 22:29N 39°11' E 009°09'0 0.0
2017-Aug-13 21:59N 39°11' E 009°09'0 0.0
2017-Aug-13 21:30N 39°11' E 009°09'0 0.0
2017-Aug-13 21:00N 39°11' E 009°09'0 0.0
2017-Aug-13 20:30N 39°11' E 009°09'0 0.0
2017-Aug-13 19:55N 39°11' E 009°09'0 0.0
2017-Aug-13 19:28N 39°11' E 009°09'0 0.0
2017-Aug-13 18:58N 39°11' E 009°09'0 0.0
2017-Aug-13 18:29N 39°11' E 009°09'0 0.0
2017-Aug-13 17:59N 39°11' E 009°09'0 0.0
2017-Aug-13 17:26N 39°11' E 009°09'0 0.0
2017-Aug-13 17:00N 39°11' E 009°09'0 0.0
2017-Aug-13 16:30N 39°11' E 009°09'0 0.0
2017-Aug-13 16:00N 39°11' E 009°09'0 0.0
2017-Aug-13 15:28N 39°11' E 009°09'0 0.0
2017-Aug-13 14:58N 39°11' E 009°09'0 0.0
2017-Aug-13 14:28N 39°11' E 009°09'0 0.0
2017-Aug-13 13:59N 39°11' E 009°09'0 0.0
2017-Aug-13 13:29N 39°11' E 009°09'0 0.0
2017-Aug-13 12:59N 39°11' E 009°09'0 0.0
2017-Aug-13 12:30N 39°11' E 009°09'0 0.0
2017-Aug-13 12:00N 39°11' E 009°09'0 0.1
2017-Aug-13 11:30N 39°11' E 009°09'3 5.1
2017-Aug-13 11:00N 39°13' E 009°07'0 0.4
2017-Aug-13 10:28N 39°13' E 009°07'0 0.0
2017-Aug-13 09:58N 39°13' E 009°07'0 0.0
2017-Aug-13 09:28N 39°13' E 009°07'0 0.0
2017-Aug-13 08:59N 39°13' E 009°07'0 0.0
2017-Aug-13 08:29N 39°13' E 009°07'0 0.0
2017-Aug-13 07:59N 39°13' E 009°07'0 0.0
2017-Aug-13 07:30N 39°13' E 009°07'0 0.0
2017-Aug-13 07:00N 39°13' E 009°07'0 0.0
2017-Aug-13 06:30N 39°13' E 009°07'0 0.0
2017-Aug-13 05:58N 39°13' E 009°07'0 0.0
2017-Aug-13 05:28N 39°13' E 009°07'0 0.0
2017-Aug-13 04:58N 39°13' E 009°07'0 0.0
2017-Aug-13 04:29N 39°13' E 009°07'0 0.0
2017-Aug-13 03:59N 39°13' E 009°07'0 0.0
2017-Aug-13 03:29N 39°13' E 009°07'0 0.0
2017-Aug-13 03:00N 39°13' E 009°07'0 0.0
2017-Aug-13 02:30N 39°13' E 009°07'0 0.0
2017-Aug-13 02:00N 39°13' E 009°07'0 0.0
2017-Aug-13 01:28N 39°13' E 009°07'0 0.0
2017-Aug-13 00:58N 39°13' E 009°07'0 0.0
2017-Aug-13 00:28N 39°13' E 009°07'0 0.0
2017-Aug-12 23:59N 39°13' E 009°07'0 0.0
2017-Aug-12 23:29N 39°13' E 009°07'0 0.0
2017-Aug-12 22:59N 39°13' E 009°07'0 0.0
2017-Aug-12 22:30N 39°13' E 009°07'0 0.0
2017-Aug-12 22:00N 39°13' E 009°07'0 0.0
2017-Aug-12 21:30N 39°13' E 009°07'0 0.0
2017-Aug-12 20:58N 39°13' E 009°07'0 0.0
2017-Aug-12 20:28N 39°13' E 009°07'0 0.0
2017-Aug-12 19:58N 39°13' E 009°07'0 0.0
2017-Aug-12 19:23N 39°13' E 009°07'0 0.0
2017-Aug-12 18:59N 39°13' E 009°07'0 0.0
2017-Aug-12 18:29N 39°13' E 009°07'0 0.0
2017-Aug-12 18:00N 39°13' E 009°07'0 0.0
2017-Aug-12 17:30N 39°13' E 009°07'0 0.0
2017-Aug-12 17:00N 39°13' E 009°07'0 0.0
2017-Aug-12 16:28N 39°13' E 009°07'0 0.0
2017-Aug-12 15:58N 39°13' E 009°07'0 0.0
2017-Aug-12 15:28N 39°13' E 009°07'0 0.0
2017-Aug-12 14:59N 39°13' E 009°07'0 0.0
2017-Aug-12 14:29N 39°13' E 009°07'0 0.0
2017-Aug-12 13:59N 39°13' E 009°07'0 0.0
2017-Aug-12 13:30N 39°13' E 009°07'0 0.0
2017-Aug-12 13:00N 39°13' E 009°07'0 0.0
2017-Aug-12 12:30N 39°13' E 009°07'0 0.0
2017-Aug-12 11:58N 39°13' E 009°07'0 0.0
2017-Aug-12 11:28N 39°13' E 009°07'0 0.0
2017-Aug-12 10:58N 39°13' E 009°07'0 0.0
2017-Aug-12 10:29N 39°13' E 009°07'0 0.0
2017-Aug-12 09:59N 39°13' E 009°07'0 0.0
2017-Aug-12 09:29N 39°13' E 009°07'0 0.0
2017-Aug-12 09:00N 39°13' E 009°07'0 0.0
2017-Aug-12 08:30N 39°13' E 009°07'0 0.0
2017-Aug-12 08:00N 39°13' E 009°07'0 0.0
2017-Aug-12 07:28N 39°13' E 009°07'0 0.0
2017-Aug-12 06:58N 39°13' E 009°07'0 0.0
2017-Aug-12 06:28N 39°13' E 009°07'0 0.0
2017-Aug-12 05:59N 39°13' E 009°07'0 0.0
2017-Aug-12 05:29N 39°13' E 009°07'0 0.0
2017-Aug-12 04:59N 39°13' E 009°07'0 0.0
2017-Aug-12 04:30N 39°13' E 009°07'0 0.0
2017-Aug-12 04:00N 39°13' E 009°07'0 0.0
2017-Aug-12 03:30N 39°13' E 009°07'0 0.0
2017-Aug-12 02:58N 39°13' E 009°07'0 0.0
2017-Aug-12 02:28N 39°13' E 009°07'0 0.0
2017-Aug-12 01:58N 39°13' E 009°07'0 0.0
2017-Aug-12 01:29N 39°13' E 009°07'0 0.0
2017-Aug-12 00:59N 39°13' E 009°07'0 0.0
2017-Aug-12 00:29N 39°13' E 009°07'0 0.0
2017-Aug-12 00:00N 39°13' E 009°07'0 0.0
2017-Aug-11 23:30N 39°13' E 009°07'0 0.0
2017-Aug-11 23:00N 39°13' E 009°07'0 0.0
2017-Aug-11 22:28N 39°13' E 009°07'0 0.0
2017-Aug-11 21:58N 39°13' E 009°07'0 0.0
2017-Aug-11 21:28N 39°13' E 009°07'0 0.0
2017-Aug-11 20:59N 39°13' E 009°07'0 0.0
2017-Aug-11 20:29N 39°13' E 009°07'0 0.0
2017-Aug-11 19:59N 39°13' E 009°07'0 0.0
2017-Aug-11 19:30N 39°13' E 009°07'0 0.0
2017-Aug-11 19:00N 39°13' E 009°07'0 0.0
2017-Aug-11 18:30N 39°13' E 009°07'0 0.0
2017-Aug-11 17:58N 39°13' E 009°07'0 0.0
2017-Aug-11 17:28N 39°13' E 009°07'0 0.0
2017-Aug-11 16:59N 39°13' E 009°07'0 0.0
2017-Aug-11 16:29N 39°13' E 009°07'0 0.0
2017-Aug-11 15:59N 39°13' E 009°07'0 0.0
2017-Aug-11 15:30N 39°13' E 009°07'0 0.0
2017-Aug-11 15:00N 39°13' E 009°07'0 0.0
2017-Aug-11 14:00N 39°13' E 009°07'0 0.0
2017-Aug-11 13:28N 39°13' E 009°07'0 0.0
2017-Aug-11 12:58N 39°13' E 009°07'0 0.0
2017-Aug-11 12:28N 39°13' E 009°07'0 0.0
2017-Aug-11 11:59N 39°13' E 009°07'0 0.0
2017-Aug-11 11:29N 39°13' E 009°07'0 0.0
2017-Aug-11 10:59N 39°13' E 009°07'0 0.0
2017-Aug-11 10:30N 39°13' E 009°07'0 0.0
2017-Aug-11 10:00N 39°13' E 009°07'0 0.0
2017-Aug-11 09:30N 39°13' E 009°07'0 0.0
2017-Aug-11 08:58N 39°13' E 009°07'0 0.0
2017-Aug-11 08:28N 39°13' E 009°07'0 0.0
2017-Aug-11 07:59N 39°13' E 009°07'0 0.0
2017-Aug-11 07:29N 39°13' E 009°07'0 0.0
2017-Aug-11 06:59N 39°13' E 009°07'0 0.0
2017-Aug-11 06:30N 39°13' E 009°07'0 0.0
2017-Aug-11 06:00N 39°13' E 009°07'0 0.0
2017-Aug-11 05:30N 39°13' E 009°07'0 0.0
2017-Aug-11 05:00N 39°13' E 009°07'0 0.0
2017-Aug-11 04:28N 39°13' E 009°07'0 0.0
2017-Aug-11 03:58N 39°13' E 009°07'0 0.0
2017-Aug-11 03:29N 39°13' E 009°07'0 0.0
2017-Aug-11 02:59N 39°13' E 009°07'0 0.0
2017-Aug-11 02:29N 39°13' E 009°07'0 0.0
2017-Aug-11 02:00N 39°13' E 009°07'0 0.0
2017-Aug-11 01:30N 39°13' E 009°07'0 0.0
2017-Aug-11 01:00N 39°13' E 009°07'0 0.0
2017-Aug-11 00:31N 39°13' E 009°07'0 0.0
2017-Aug-10 23:58N 39°13' E 009°07'0 0.0
2017-Aug-10 23:28N 39°13' E 009°07'0 0.0
2017-Aug-10 22:59N 39°13' E 009°07'0 0.0
2017-Aug-10 22:29N 39°13' E 009°07'0 0.0
2017-Aug-10 21:59N 39°13' E 009°07'0 0.0
2017-Aug-10 21:30N 39°13' E 009°07'0 0.0
2017-Aug-10 21:00N 39°13' E 009°07'0 0.0
2017-Aug-10 20:30N 39°13' E 009°07'0 0.0
2017-Aug-10 19:58N 39°13' E 009°07'0 0.0
2017-Aug-10 19:28N 39°13' E 009°07'0 0.0
2017-Aug-10 18:58N 39°13' E 009°07'0 0.0
2017-Aug-10 18:29N 39°13' E 009°07'0 0.0
2017-Aug-10 17:56N 39°13' E 009°07'0 0.0
2017-Aug-10 17:29N 39°13' E 009°07'0 0.0
2017-Aug-10 17:00N 39°13' E 009°07'0 0.0
2017-Aug-10 16:30N 39°13' E 009°07'0 0.0
2017-Aug-10 16:00N 39°13' E 009°07'0 0.0
2017-Aug-10 15:28N 39°13' E 009°07'0 0.0
2017-Aug-10 14:58N 39°13' E 009°07'0 0.0
2017-Aug-10 14:28N 39°13' E 009°07'0 0.0
2017-Aug-10 13:56N 39°13' E 009°07'0 0.0
2017-Aug-10 13:29N 39°13' E 009°07'0 0.0
2017-Aug-10 12:59N 39°13' E 009°07'0 0.0
2017-Aug-10 12:30N 39°13' E 009°07'0 0.0
2017-Aug-10 12:00N 39°13' E 009°07'0 0.0
2017-Aug-10 11:30N 39°13' E 009°07'0 0.0
2017-Aug-10 10:58N 39°13' E 009°07'0 0.0
2017-Aug-10 10:28N 39°13' E 009°07'0 0.0
2017-Aug-10 09:58N 39°13' E 009°07'0 0.0
2017-Aug-10 09:29N 39°13' E 009°07'0 0.0
2017-Aug-10 08:59N 39°13' E 009°07'0 0.0
2017-Aug-10 08:29N 39°13' E 009°07'0 0.0
2017-Aug-10 08:00N 39°13' E 009°07'0 0.0
2017-Aug-10 07:30N 39°13' E 009°07'0 0.0
2017-Aug-10 07:00N 39°13' E 009°07'0 0.0
2017-Aug-10 06:28N 39°13' E 009°07'0 0.0
2017-Aug-10 05:58N 39°13' E 009°07'0 0.0
2017-Aug-10 05:28N 39°13' E 009°07'0 0.0
2017-Aug-10 04:59N 39°13' E 009°07'0 0.0
2017-Aug-10 04:29N 39°13' E 009°07'0 0.0
2017-Aug-10 03:59N 39°13' E 009°07'0 0.0
2017-Aug-10 03:30N 39°13' E 009°07'0 0.0
2017-Aug-10 03:00N 39°13' E 009°07'0 0.0
2017-Aug-10 02:30N 39°13' E 009°07'0 0.0
2017-Aug-10 01:58N 39°13' E 009°07'0 0.0
2017-Aug-10 01:28N 39°13' E 009°07'0 0.0
2017-Aug-10 00:58N 39°13' E 009°07'0 0.0
2017-Aug-10 00:29N 39°13' E 009°07'0 0.0
2017-Aug-09 23:59N 39°13' E 009°07'0 0.1
2017-Aug-09 23:29N 39°13' E 009°07'2 4.8
2017-Aug-09 23:00N 39°10' E 009°07'611.6
2017-Aug-09 22:30N 39°04' E 009°07'611.5
2017-Aug-09 21:59N 38°59' E 009°03'712.3
2017-Aug-09 21:27N 38°56' E 008°57'0 0.4
2017-Aug-09 20:58N 38°56' E 008°56'0 0.0
2017-Aug-09 20:29N 38°56' E 008°56'0 0.0
2017-Aug-09 19:53N 38°56' E 008°56'0 0.0
2017-Aug-09 19:29N 38°56' E 008°56'0 0.0
2017-Aug-09 19:00N 38°56' E 008°56'0 0.0
2017-Aug-09 18:21N 38°56' E 008°56'0 0.0
2017-Aug-09 13:54N 38°56' E 008°56'0 0.0
2017-Aug-09 13:27N 38°56' E 008°56'0 0.0
2017-Aug-09 09:38N 38°56' E 008°56'0 0.0
2017-Aug-09 04:09N 38°56' E 008°57'0 0.0
2017-Aug-09 03:54N 38°56' E 008°57'0 0.1
2017-Aug-09 03:12N 38°56' E 008°57'0 0.0
2017-Aug-09 02:58N 38°56' E 008°57'0 0.0
2017-Aug-09 02:28N 38°56' E 008°57'0 0.1
2017-Aug-09 01:58N 38°56' E 008°57'0 0.0
2017-Aug-09 01:26N 38°56' E 008°57'0 0.0
2017-Aug-09 00:59N 38°56' E 008°57'0 0.0
2017-Aug-09 00:29N 38°56' E 008°57'0 0.0
2017-Aug-09 00:00N 38°56' E 008°57'0 0.0
2017-Aug-08 23:21N 38°56' E 008°57'0 0.0
2017-Aug-08 22:45N 38°56' E 008°57'0 0.0
2017-Aug-08 22:22N 38°56' E 008°57'0 0.0
2017-Aug-08 22:00N 38°56' E 008°57'4 7.7
2017-Aug-08 21:30N 38°58' E 009°01'611.5
2017-Aug-08 21:00N 38°59' E 009°08'712.1
2017-Aug-08 20:26N 38°60' E 009°17'512.1
2017-Aug-08 20:00N 39°01' E 009°23'612.5
2017-Aug-08 19:30N 39°04' E 009°30'712.3
2017-Aug-08 18:59N 39°01' E 009°38'1812.5
2017-Aug-08 17:32N 38°54' E 009°59'0 1.2
2017-Aug-08 17:29N 38°54' E 009°59'18012.0
2017-Aug-08 02:26N 38°14' E 013°44'1213.5
2017-Aug-08 01:33N 38°15' E 013°59'113.5
2017-Aug-08 01:30N 38°15' E 014°00'713.5
2017-Aug-08 01:00N 38°16' E 014°09'713.5
2017-Aug-08 00:30N 38°17' E 014°17'713.2
2017-Aug-08 00:00N 38°17' E 014°26'713.2
2017-Aug-07 23:30N 38°17' E 014°34'612.9
2017-Aug-07 23:00N 38°18' E 014°42'713.1
2017-Aug-07 22:30N 38°18' E 014°50'1413.3
2017-Aug-07 21:28N 38°19' E 015°08'3 7.5
2017-Aug-07 21:00N 38°19' E 015°12'812.9
2017-Aug-07 20:25N 38°23' E 015°04'512.5
2017-Aug-07 20:01N 38°25' E 014°58'2 1.6
2017-Aug-07 18:37N 38°24' E 014°56'2 4.6
2017-Aug-07 18:14N 38°25' E 014°57'0 0.0
2017-Aug-07 18:00N 38°25' E 014°57'0 0.0
2017-Aug-07 17:18N 38°25' E 014°57'0 0.1
2017-Aug-07 17:00N 38°25' E 014°57'0 0.0
2017-Aug-07 16:30N 38°25' E 014°57'0 0.0
2017-Aug-07 13:05N 38°25' E 014°57'0 0.0
2017-Aug-07 12:56N 38°25' E 014°57'0 0.0
2017-Aug-07 12:31N 38°25' E 014°57'0 0.0
2017-Aug-07 09:18N 38°25' E 014°57'0 0.0
2017-Aug-07 08:56N 38°25' E 014°57'0 0.0
2017-Aug-07 08:30N 38°25' E 014°57'5 0.2
2017-Aug-06 12:39N 38°30' E 014°59'1 4.8
2017-Aug-06 12:31N 38°30' E 014°58'5 0.3
2017-Aug-05 18:03N 38°32' E 014°53'110.1
2017-Aug-05 18:00N 38°32' E 014°52'4 8.2
2017-Aug-05 17:30N 38°35' E 014°48'0 0.0
2017-Aug-05 17:00N 38°35' E 014°48'0 0.0
2017-Aug-05 16:24N 38°35' E 014°48'0 0.0
2017-Aug-05 16:00N 38°35' E 014°48'0 0.0
2017-Aug-05 15:30N 38°35' E 014°48'0 0.0
2017-Aug-05 15:00N 38°35' E 014°48'0 0.0
2017-Aug-05 14:30N 38°35' E 014°48'0 0.0
2017-Aug-05 14:00N 38°35' E 014°48'0 0.0
2017-Aug-05 13:30N 38°35' E 014°48'0 0.5
2017-Aug-05 13:00N 38°34' E 014°48'4 7.8
2017-Aug-05 12:26N 38°33' E 014°53'511.7
2017-Aug-05 12:00N 38°35' E 014°59'6 3.4
2017-Aug-05 10:20N 38°37' E 015°05'3 8.2
2017-Aug-05 10:00N 38°40' E 015°06'  
Track history (hours):
 
Tides and Currents Weather Stations Pressure Air Temp Water Temp Dewpoint Dewpoint Depression Visibility Wind Speed Wind Dir Waves Ship Positions

Waverunner

Last reported at 2017-Aug-14 17:58 UTC. Time now 2017-Aug-23 11:43 UTC.
Position N 39°06' E 009°26'.
Warning: this ship's position is 8 days out of date.

Length 41 m; draft 2 m.

MMSI: 319804000.

Date/timePositionNaut miles runAvg speedWind from/ knotsBaromVisibWave heightAir tempDewpointWater temp
2017-Aug-14 17:58N 39°06' E 009°26'611.8
2017-Aug-14 17:28N 39°08' E 009°19'511.9
2017-Aug-14 17:00N 39°09' E 009°12'5 9.6
2017-Aug-14 16:30N 39°11' E 009°07'2 3.1
2017-Aug-14 16:00N 39°13' E 009°06'0 0.0
2017-Aug-14 15:30N 39°13' E 009°07'0 0.0
2017-Aug-14 15:00N 39°13' E 009°07'0 0.0
2017-Aug-14 14:28N 39°13' E 009°07'0 0.0
2017-Aug-14 13:58N 39°13' E 009°07'1 1.3
2017-Aug-14 13:30N 39°12' E 009°07'2 4.1
2017-Aug-14 12:58N 39°11' E 009°09'0 0.0
2017-Aug-14 12:29N 39°11' E 009°09'0 0.0
2017-Aug-14 11:59N 39°11' E 009°09'0 0.0
2017-Aug-14 11:29N 39°11' E 009°09'0 0.0
2017-Aug-14 11:00N 39°11' E 009°09'0 0.0
2017-Aug-14 10:30N 39°11' E 009°09'0 0.0
2017-Aug-14 09:25N 39°11' E 009°09'0 0.0
2017-Aug-14 08:58N 39°11' E 009°09'0 0.0
2017-Aug-14 08:28N 39°11' E 009°09'0 0.1
2017-Aug-14 07:59N 39°11' E 009°09'0 0.0
2017-Aug-14 07:29N 39°11' E 009°09'0 0.0
2017-Aug-14 06:59N 39°11' E 009°09'0 0.0
2017-Aug-14 06:30N 39°11' E 009°09'0 0.0
2017-Aug-14 06:00N 39°11' E 009°09'0 0.0
2017-Aug-14 05:30N 39°11' E 009°09'0 0.0
2017-Aug-14 04:58N 39°11' E 009°09'0 0.0
2017-Aug-14 04:28N 39°11' E 009°09'0 0.0
2017-Aug-14 03:58N 39°11' E 009°09'0 0.0
2017-Aug-14 03:29N 39°11' E 009°09'0 0.0
2017-Aug-14 02:59N 39°11' E 009°09'0 0.0
2017-Aug-14 02:29N 39°11' E 009°09'0 0.0
2017-Aug-14 02:00N 39°11' E 009°09'0 0.1
2017-Aug-14 01:30N 39°11' E 009°09'0 0.0
2017-Aug-14 01:00N 39°11' E 009°09'0 0.0
2017-Aug-14 00:28N 39°11' E 009°09'0 0.0
2017-Aug-13 23:58N 39°11' E 009°09'0 0.0
2017-Aug-13 23:28N 39°11' E 009°09'0 0.0
2017-Aug-13 22:59N 39°11' E 009°09'0 0.0
2017-Aug-13 22:29N 39°11' E 009°09'0 0.0
2017-Aug-13 21:59N 39°11' E 009°09'0 0.0
2017-Aug-13 21:30N 39°11' E 009°09'0 0.0
2017-Aug-13 21:00N 39°11' E 009°09'0 0.0
2017-Aug-13 20:30N 39°11' E 009°09'0 0.0
2017-Aug-13 19:55N 39°11' E 009°09'0 0.0
2017-Aug-13 19:28N 39°11' E 009°09'0 0.0
2017-Aug-13 18:58N 39°11' E 009°09'0 0.0
2017-Aug-13 18:29N 39°11' E 009°09'0 0.0
2017-Aug-13 17:59N 39°11' E 009°09'0 0.0
2017-Aug-13 17:26N 39°11' E 009°09'0 0.0
2017-Aug-13 17:00N 39°11' E 009°09'0 0.0
2017-Aug-13 16:30N 39°11' E 009°09'0 0.0
2017-Aug-13 16:00N 39°11' E 009°09'0 0.0
2017-Aug-13 15:28N 39°11' E 009°09'0 0.0
2017-Aug-13 14:58N 39°11' E 009°09'0 0.0
2017-Aug-13 14:28N 39°11' E 009°09'0 0.0
2017-Aug-13 13:59N 39°11' E 009°09'0 0.0
2017-Aug-13 13:29N 39°11' E 009°09'0 0.0
2017-Aug-13 12:59N 39°11' E 009°09'0 0.0
2017-Aug-13 12:30N 39°11' E 009°09'0 0.0
2017-Aug-13 12:00N 39°11' E 009°09'0 0.1
2017-Aug-13 11:30N 39°11' E 009°09'3 5.1
2017-Aug-13 11:00N 39°13' E 009°07'0 0.4
2017-Aug-13 10:28N 39°13' E 009°07'0 0.0
2017-Aug-13 09:58N 39°13' E 009°07'0 0.0
2017-Aug-13 09:28N 39°13' E 009°07'0 0.0
2017-Aug-13 08:59N 39°13' E 009°07'0 0.0
2017-Aug-13 08:29N 39°13' E 009°07'0 0.0
2017-Aug-13 07:59N 39°13' E 009°07'0 0.0
2017-Aug-13 07:30N 39°13' E 009°07'0 0.0
2017-Aug-13 07:00N 39°13' E 009°07'0 0.0
2017-Aug-13 06:30N 39°13' E 009°07'0 0.0
2017-Aug-13 05:58N 39°13' E 009°07'0 0.0
2017-Aug-13 05:28N 39°13' E 009°07'0 0.0
2017-Aug-13 04:58N 39°13' E 009°07'0 0.0
2017-Aug-13 04:29N 39°13' E 009°07'0 0.0
2017-Aug-13 03:59N 39°13' E 009°07'0 0.0
2017-Aug-13 03:29N 39°13' E 009°07'0 0.0
2017-Aug-13 03:00N 39°13' E 009°07'0 0.0
2017-Aug-13 02:30N 39°13' E 009°07'0 0.0
2017-Aug-13 02:00N 39°13' E 009°07'0 0.0
2017-Aug-13 01:28N 39°13' E 009°07'0 0.0
2017-Aug-13 00:58N 39°13' E 009°07'0 0.0
2017-Aug-13 00:28N 39°13' E 009°07'0 0.0
2017-Aug-12 23:59N 39°13' E 009°07'0 0.0
2017-Aug-12 23:29N 39°13' E 009°07'0 0.0
2017-Aug-12 22:59N 39°13' E 009°07'0 0.0
2017-Aug-12 22:30N 39°13' E 009°07'0 0.0
2017-Aug-12 22:00N 39°13' E 009°07'0 0.0
2017-Aug-12 21:30N 39°13' E 009°07'0 0.0
2017-Aug-12 20:58N 39°13' E 009°07'0 0.0
2017-Aug-12 20:28N 39°13' E 009°07'0 0.0
2017-Aug-12 19:58N 39°13' E 009°07'0 0.0
2017-Aug-12 19:23N 39°13' E 009°07'0 0.0
2017-Aug-12 18:59N 39°13' E 009°07'0 0.0
2017-Aug-12 18:29N 39°13' E 009°07'0 0.0
2017-Aug-12 18:00N 39°13' E 009°07'0 0.0
2017-Aug-12 17:30N 39°13' E 009°07'0 0.0
2017-Aug-12 17:00N 39°13' E 009°07'0 0.0
2017-Aug-12 16:28N 39°13' E 009°07'0 0.0
2017-Aug-12 15:58N 39°13' E 009°07'0 0.0
2017-Aug-12 15:28N 39°13' E 009°07'0 0.0
2017-Aug-12 14:59N 39°13' E 009°07'0 0.0
2017-Aug-12 14:29N 39°13' E 009°07'0 0.0
2017-Aug-12 13:59N 39°13' E 009°07'0 0.0
2017-Aug-12 13:30N 39°13' E 009°07'0 0.0
2017-Aug-12 13:00N 39°13' E 009°07'0 0.0
2017-Aug-12 12:30N 39°13' E 009°07'0 0.0
2017-Aug-12 11:58N 39°13' E 009°07'0 0.0
2017-Aug-12 11:28N 39°13' E 009°07'0 0.0
2017-Aug-12 10:58N 39°13' E 009°07'0 0.0
2017-Aug-12 10:29N 39°13' E 009°07'0 0.0
2017-Aug-12 09:59N 39°13' E 009°07'0 0.0
2017-Aug-12 09:29N 39°13' E 009°07'0 0.0
2017-Aug-12 09:00N 39°13' E 009°07'0 0.0
2017-Aug-12 08:30N 39°13' E 009°07'0 0.0
2017-Aug-12 08:00N 39°13' E 009°07'0 0.0
2017-Aug-12 07:28N 39°13' E 009°07'0 0.0
2017-Aug-12 06:58N 39°13' E 009°07'0 0.0
2017-Aug-12 06:28N 39°13' E 009°07'0 0.0
2017-Aug-12 05:59N 39°13' E 009°07'0 0.0
2017-Aug-12 05:29N 39°13' E 009°07'0 0.0
2017-Aug-12 04:59N 39°13' E 009°07'0 0.0
2017-Aug-12 04:30N 39°13' E 009°07'0 0.0
2017-Aug-12 04:00N 39°13' E 009°07'0 0.0
2017-Aug-12 03:30N 39°13' E 009°07'0 0.0
2017-Aug-12 02:58N 39°13' E 009°07'0 0.0
2017-Aug-12 02:28N 39°13' E 009°07'0 0.0
2017-Aug-12 01:58N 39°13' E 009°07'0 0.0
2017-Aug-12 01:29N 39°13' E 009°07'0 0.0
2017-Aug-12 00:59N 39°13' E 009°07'0 0.0
2017-Aug-12 00:29N 39°13' E 009°07'0 0.0
2017-Aug-12 00:00N 39°13' E 009°07'0 0.0
2017-Aug-11 23:30N 39°13' E 009°07'0 0.0
2017-Aug-11 23:00N 39°13' E 009°07'0 0.0
2017-Aug-11 22:28N 39°13' E 009°07'0 0.0
2017-Aug-11 21:58N 39°13' E 009°07'0 0.0
2017-Aug-11 21:28N 39°13' E 009°07'0 0.0
2017-Aug-11 20:59N 39°13' E 009°07'0 0.0
2017-Aug-11 20:29N 39°13' E 009°07'0 0.0
2017-Aug-11 19:59N 39°13' E 009°07'0 0.0
2017-Aug-11 19:30N 39°13' E 009°07'0 0.0
2017-Aug-11 19:00N 39°13' E 009°07'0 0.0
2017-Aug-11 18:30N 39°13' E 009°07'0 0.0
2017-Aug-11 17:58N 39°13' E 009°07'0 0.0
2017-Aug-11 17:28N 39°13' E 009°07'0 0.0
2017-Aug-11 16:59N 39°13' E 009°07'0 0.0
2017-Aug-11 16:29N 39°13' E 009°07'0 0.0
2017-Aug-11 15:59N 39°13' E 009°07'0 0.0
2017-Aug-11 15:30N 39°13' E 009°07'0 0.0
2017-Aug-11 15:00N 39°13' E 009°07'0 0.0
2017-Aug-11 14:00N 39°13' E 009°07'0 0.0
2017-Aug-11 13:28N 39°13' E 009°07'0 0.0
2017-Aug-11 12:58N 39°13' E 009°07'0 0.0
2017-Aug-11 12:28N 39°13' E 009°07'0 0.0
2017-Aug-11 11:59N 39°13' E 009°07'0 0.0
2017-Aug-11 11:29N 39°13' E 009°07'0 0.0
2017-Aug-11 10:59N 39°13' E 009°07'0 0.0
2017-Aug-11 10:30N 39°13' E 009°07'0 0.0
2017-Aug-11 10:00N 39°13' E 009°07'0 0.0
2017-Aug-11 09:30N 39°13' E 009°07'0 0.0
2017-Aug-11 08:58N 39°13' E 009°07'0 0.0
2017-Aug-11 08:28N 39°13' E 009°07'0 0.0
2017-Aug-11 07:59N 39°13' E 009°07'0 0.0
2017-Aug-11 07:29N 39°13' E 009°07'0 0.0
2017-Aug-11 06:59N 39°13' E 009°07'0 0.0
2017-Aug-11 06:30N 39°13' E 009°07'0 0.0
2017-Aug-11 06:00N 39°13' E 009°07'0 0.0
2017-Aug-11 05:30N 39°13' E 009°07'0 0.0
2017-Aug-11 05:00N 39°13' E 009°07'0 0.0
2017-Aug-11 04:28N 39°13' E 009°07'0 0.0
2017-Aug-11 03:58N 39°13' E 009°07'0 0.0
2017-Aug-11 03:29N 39°13' E 009°07'0 0.0
2017-Aug-11 02:59N 39°13' E 009°07'0 0.0
2017-Aug-11 02:29N 39°13' E 009°07'0 0.0
2017-Aug-11 02:00N 39°13' E 009°07'0 0.0
2017-Aug-11 01:30N 39°13' E 009°07'0 0.0
2017-Aug-11 01:00N 39°13' E 009°07'0 0.0
2017-Aug-11 00:31N 39°13' E 009°07'0 0.0
2017-Aug-10 23:58N 39°13' E 009°07'0 0.0
2017-Aug-10 23:28N 39°13' E 009°07'0 0.0
2017-Aug-10 22:59N 39°13' E 009°07'0 0.0
2017-Aug-10 22:29N 39°13' E 009°07'0 0.0
2017-Aug-10 21:59N 39°13' E 009°07'0 0.0
2017-Aug-10 21:30N 39°13' E 009°07'0 0.0
2017-Aug-10 21:00N 39°13' E 009°07'0 0.0
2017-Aug-10 20:30N 39°13' E 009°07'0 0.0
2017-Aug-10 19:58N 39°13' E 009°07'0 0.0
2017-Aug-10 19:28N 39°13' E 009°07'0 0.0
2017-Aug-10 18:58N 39°13' E 009°07'0 0.0
2017-Aug-10 18:29N 39°13' E 009°07'0 0.0
2017-Aug-10 17:56N 39°13' E 009°07'0 0.0
2017-Aug-10 17:29N 39°13' E 009°07'0 0.0
2017-Aug-10 17:00N 39°13' E 009°07'0 0.0
2017-Aug-10 16:30N 39°13' E 009°07'0 0.0
2017-Aug-10 16:00N 39°13' E 009°07'0 0.0
2017-Aug-10 15:28N 39°13' E 009°07'0 0.0
2017-Aug-10 14:58N 39°13' E 009°07'0 0.0
2017-Aug-10 14:28N 39°13' E 009°07'0 0.0
2017-Aug-10 13:56N 39°13' E 009°07'0 0.0
2017-Aug-10 13:29N 39°13' E 009°07'0 0.0
2017-Aug-10 12:59N 39°13' E 009°07'0 0.0
2017-Aug-10 12:30N 39°13' E 009°07'0 0.0
2017-Aug-10 12:00N 39°13' E 009°07'0 0.0
2017-Aug-10 11:30N 39°13' E 009°07'0 0.0
2017-Aug-10 10:58N 39°13' E 009°07'0 0.0
2017-Aug-10 10:28N 39°13' E 009°07'0 0.0
2017-Aug-10 09:58N 39°13' E 009°07'0 0.0
2017-Aug-10 09:29N 39°13' E 009°07'0 0.0
2017-Aug-10 08:59N 39°13' E 009°07'0 0.0
2017-Aug-10 08:29N 39°13' E 009°07'0 0.0
2017-Aug-10 08:00N 39°13' E 009°07'0 0.0
2017-Aug-10 07:30N 39°13' E 009°07'0 0.0
2017-Aug-10 07:00N 39°13' E 009°07'0 0.0
2017-Aug-10 06:28N 39°13' E 009°07'0 0.0
2017-Aug-10 05:58N 39°13' E 009°07'0 0.0
2017-Aug-10 05:28N 39°13' E 009°07'0 0.0
2017-Aug-10 04:59N 39°13' E 009°07'0 0.0
2017-Aug-10 04:29N 39°13' E 009°07'0 0.0
2017-Aug-10 03:59N 39°13' E 009°07'0 0.0
2017-Aug-10 03:30N 39°13' E 009°07'0 0.0
2017-Aug-10 03:00N 39°13' E 009°07'0 0.0
2017-Aug-10 02:30N 39°13' E 009°07'0 0.0
2017-Aug-10 01:58N 39°13' E 009°07'0 0.0
2017-Aug-10 01:28N 39°13' E 009°07'0 0.0
2017-Aug-10 00:58N 39°13' E 009°07'0 0.0
2017-Aug-10 00:29N 39°13' E 009°07'0 0.0
2017-Aug-09 23:59N 39°13' E 009°07'0 0.1
2017-Aug-09 23:29N 39°13' E 009°07'2 4.8
2017-Aug-09 23:00N 39°10' E 009°07'611.6
2017-Aug-09 22:30N 39°04' E 009°07'611.5
2017-Aug-09 21:59N 38°59' E 009°03'712.3
2017-Aug-09 21:27N 38°56' E 008°57'0 0.4
2017-Aug-09 20:58N 38°56' E 008°56'0 0.0
2017-Aug-09 20:29N 38°56' E 008°56'0 0.0
2017-Aug-09 19:53N 38°56' E 008°56'0 0.0
2017-Aug-09 19:29N 38°56' E 008°56'0 0.0
2017-Aug-09 19:00N 38°56' E 008°56'0 0.0
2017-Aug-09 18:21N 38°56' E 008°56'0 0.0
2017-Aug-09 13:54N 38°56' E 008°56'0 0.0
2017-Aug-09 13:27N 38°56' E 008°56'0 0.0
2017-Aug-09 09:38N 38°56' E 008°56'0 0.0
2017-Aug-09 04:09N 38°56' E 008°57'0 0.0
2017-Aug-09 03:54N 38°56' E 008°57'0 0.1
2017-Aug-09 03:12N 38°56' E 008°57'0 0.0
2017-Aug-09 02:58N 38°56' E 008°57'0 0.0
2017-Aug-09 02:28N 38°56' E 008°57'0 0.1
2017-Aug-09 01:58N 38°56' E 008°57'0 0.0
2017-Aug-09 01:26N 38°56' E 008°57'0 0.0
2017-Aug-09 00:59N 38°56' E 008°57'0 0.0
2017-Aug-09 00:29N 38°56' E 008°57'0 0.0
2017-Aug-09 00:00N 38°56' E 008°57'0 0.0
2017-Aug-08 23:21N 38°56' E 008°57'0 0.0
2017-Aug-08 22:45N 38°56' E 008°57'0 0.0
2017-Aug-08 22:22N 38°56' E 008°57'0 0.0
2017-Aug-08 22:00N 38°56' E 008°57'4 7.7
2017-Aug-08 21:30N 38°58' E 009°01'611.5
2017-Aug-08 21:00N 38°59' E 009°08'712.1
2017-Aug-08 20:26N 38°60' E 009°17'512.1
2017-Aug-08 20:00N 39°01' E 009°23'612.5
2017-Aug-08 19:30N 39°04' E 009°30'712.3
2017-Aug-08 18:59N 39°01' E 009°38'1812.5
2017-Aug-08 17:32N 38°54' E 009°59'0 1.2
2017-Aug-08 17:29N 38°54' E 009°59'18012.0
2017-Aug-08 02:26N 38°14' E 013°44'1213.5
2017-Aug-08 01:33N 38°15' E 013°59'113.5
2017-Aug-08 01:30N 38°15' E 014°00'713.5
2017-Aug-08 01:00N 38°16' E 014°09'713.5
2017-Aug-08 00:30N 38°17' E 014°17'713.2
2017-Aug-08 00:00N 38°17' E 014°26'713.2
2017-Aug-07 23:30N 38°17' E 014°34'612.9
2017-Aug-07 23:00N 38°18' E 014°42'713.1
2017-Aug-07 22:30N 38°18' E 014°50'1413.3
2017-Aug-07 21:28N 38°19' E 015°08'3 7.5
2017-Aug-07 21:00N 38°19' E 015°12'812.9
2017-Aug-07 20:25N 38°23' E 015°04'512.5
2017-Aug-07 20:01N 38°25' E 014°58'2 1.6
2017-Aug-07 18:37N 38°24' E 014°56'2 4.6
2017-Aug-07 18:14N 38°25' E 014°57'0 0.0
2017-Aug-07 18:00N 38°25' E 014°57'0 0.0
2017-Aug-07 17:18N 38°25' E 014°57'0 0.1
2017-Aug-07 17:00N 38°25' E 014°57'0 0.0
2017-Aug-07 16:30N 38°25' E 014°57'0 0.0
2017-Aug-07 13:05N 38°25' E 014°57'0 0.0
2017-Aug-07 12:56N 38°25' E 014°57'0 0.0
2017-Aug-07 12:31N 38°25' E 014°57'0 0.0
2017-Aug-07 09:18N 38°25' E 014°57'0 0.0
2017-Aug-07 08:56N 38°25' E 014°57'0 0.0
2017-Aug-07 08:30N 38°25' E 014°57'5 0.2
2017-Aug-06 12:39N 38°30' E 014°59'1 4.8
2017-Aug-06 12:31N 38°30' E 014°58'5 0.3
2017-Aug-05 18:03N 38°32' E 014°53'110.1
2017-Aug-05 18:00N 38°32' E 014°52'4 8.2
2017-Aug-05 17:30N 38°35' E 014°48'0 0.0
2017-Aug-05 17:00N 38°35' E 014°48'0 0.0
2017-Aug-05 16:24N 38°35' E 014°48'0 0.0
2017-Aug-05 16:00N 38°35' E 014°48'0 0.0
2017-Aug-05 15:30N 38°35' E 014°48'0 0.0
2017-Aug-05 15:00N 38°35' E 014°48'0 0.0
2017-Aug-05 14:30N 38°35' E 014°48'0 0.0
2017-Aug-05 14:00N 38°35' E 014°48'0 0.0
2017-Aug-05 13:30N 38°35' E 014°48'0 0.5
2017-Aug-05 13:00N 38°34' E 014°48'4 7.8
2017-Aug-05 12:26N 38°33' E 014°53'511.7
2017-Aug-05 12:00N 38°35' E 014°59'6 3.4
2017-Aug-05 10:20N 38°37' E 015°05'3 8.2
2017-Aug-05 10:00N 38°40' E 015°06'  

Dump ship's entire track history